sensor_id;sensor_type;location;lat;lon;timestamp;temperature;humidity
28546;DHT22;15749;49.606;8.738;2024-01-27T00:02:08;12.90;1.00
28546;DHT22;15749;49.606;8.738;2024-01-27T00:04:37;12.90;1.00
28546;DHT22;15749;49.606;8.738;2024-01-27T00:07:07;12.90;1.00
28546;DHT22;15749;49.606;8.738;2024-01-27T00:09:37;12.90;1.00
28546;DHT22;15749;49.606;8.738;2024-01-27T00:12:07;12.90;1.00
28546;DHT22;15749;49.606;8.738;2024-01-27T00:14:38;12.90;1.00
28546;DHT22;15749;49.606;8.738;2024-01-27T00:17:07;12.90;1.00
28546;DHT22;15749;49.606;8.738;2024-01-27T00:19:36;12.90;1.00
28546;DHT22;15749;49.606;8.738;2024-01-27T00:22:09;12.90;1.00
28546;DHT22;15749;49.606;8.738;2024-01-27T00:24:38;12.80;1.00
28546;DHT22;15749;49.606;8.738;2024-01-27T00:27:07;12.80;1.00
28546;DHT22;15749;49.606;8.738;2024-01-27T00:29:37;12.80;1.00
28546;DHT22;15749;49.606;8.738;2024-01-27T00:32:06;12.80;1.00
28546;DHT22;15749;49.606;8.738;2024-01-27T00:34:35;12.80;1.00
28546;DHT22;15749;49.606;8.738;2024-01-27T00:37:04;12.80;1.00
28546;DHT22;15749;49.606;8.738;2024-01-27T00:39:36;12.80;1.00
28546;DHT22;15749;49.606;8.738;2024-01-27T00:42:05;12.70;1.00
28546;DHT22;15749;49.606;8.738;2024-01-27T00:44:35;12.70;1.00
28546;DHT22;15749;49.606;8.738;2024-01-27T00:47:04;12.70;1.00
28546;DHT22;15749;49.606;8.738;2024-01-27T00:49:33;12.70;1.00
28546;DHT22;15749;49.606;8.738;2024-01-27T00:52:03;12.70;1.00
28546;DHT22;15749;49.606;8.738;2024-01-27T00:54:32;12.70;1.00
28546;DHT22;15749;49.606;8.738;2024-01-27T00:57:03;12.70;1.00
28546;DHT22;15749;49.606;8.738;2024-01-27T00:59:32;12.60;1.00
28546;DHT22;15749;49.606;8.738;2024-01-27T01:02:01;12.70;1.00
28546;DHT22;15749;49.606;8.738;2024-01-27T01:04:30;12.60;1.00
28546;DHT22;15749;49.606;8.738;2024-01-27T01:07:00;12.60;1.00
28546;DHT22;15749;49.606;8.738;2024-01-27T01:09:29;12.60;1.00
28546;DHT22;15749;49.606;8.738;2024-01-27T01:11:58;12.60;1.00
28546;DHT22;15749;49.606;8.738;2024-01-27T01:14:41;12.60;1.00
28546;DHT22;15749;49.606;8.738;2024-01-27T01:17:10;12.50;1.00
28546;DHT22;15749;49.606;8.738;2024-01-27T01:19:39;12.50;1.00
28546;DHT22;15749;49.606;8.738;2024-01-27T01:22:09;12.50;1.00
28546;DHT22;15749;49.606;8.738;2024-01-27T01:24:40;12.50;1.00
28546;DHT22;15749;49.606;8.738;2024-01-27T01:27:09;12.50;1.00
28546;DHT22;15749;49.606;8.738;2024-01-27T01:29:39;12.50;1.00
28546;DHT22;15749;49.606;8.738;2024-01-27T01:32:08;12.50;1.00
28546;DHT22;15749;49.606;8.738;2024-01-27T01:34:37;12.50;1.00
28546;DHT22;15749;49.606;8.738;2024-01-27T01:37:07;12.50;1.00
28546;DHT22;15749;49.606;8.738;2024-01-27T01:39:36;12.40;1.00
28546;DHT22;15749;49.606;8.738;2024-01-27T01:42:05;12.40;1.00
28546;DHT22;15749;49.606;8.738;2024-01-27T01:44:34;12.40;1.00
28546;DHT22;15749;49.606;8.738;2024-01-27T01:47:05;12.40;1.00
28546;DHT22;15749;49.606;8.738;2024-01-27T01:49:35;12.40;1.00
28546;DHT22;15749;49.606;8.738;2024-01-27T01:52:05;12.30;1.00
28546;DHT22;15749;49.606;8.738;2024-01-27T01:54:34;12.30;1.00
28546;DHT22;15749;49.606;8.738;2024-01-27T01:57:04;12.30;1.00
28546;DHT22;15749;49.606;8.738;2024-01-27T01:59:33;12.30;1.00
28546;DHT22;15749;49.606;8.738;2024-01-27T02:02:10;12.30;1.00
28546;DHT22;15749;49.606;8.738;2024-01-27T02:04:40;12.30;1.00
28546;DHT22;15749;49.606;8.738;2024-01-27T02:07:09;12.30;1.00
28546;DHT22;15749;49.606;8.738;2024-01-27T02:09:38;12.30;1.00
28546;DHT22;15749;49.606;8.738;2024-01-27T02:12:08;12.30;1.00
28546;DHT22;15749;49.606;8.738;2024-01-27T02:14:37;12.30;1.00
28546;DHT22;15749;49.606;8.738;2024-01-27T02:17:06;12.20;1.00
28546;DHT22;15749;49.606;8.738;2024-01-27T02:19:39;12.20;1.00
28546;DHT22;15749;49.606;8.738;2024-01-27T02:22:08;12.20;1.00
28546;DHT22;15749;49.606;8.738;2024-01-27T02:24:38;12.20;1.00
28546;DHT22;15749;49.606;8.738;2024-01-27T02:27:07;12.20;1.00
28546;DHT22;15749;49.606;8.738;2024-01-27T02:29:37;12.20;1.00
28546;DHT22;15749;49.606;8.738;2024-01-27T02:32:06;12.10;1.00
28546;DHT22;15749;49.606;8.738;2024-01-27T02:34:35;12.20;1.00
28546;DHT22;15749;49.606;8.738;2024-01-27T02:37:04;12.10;1.00
28546;DHT22;15749;49.606;8.738;2024-01-27T02:39:33;12.10;1.00
28546;DHT22;15749;49.606;8.738;2024-01-27T02:42:04;12.10;1.00
28546;DHT22;15749;49.606;8.738;2024-01-27T02:44:33;12.10;1.00
28546;DHT22;15749;49.606;8.738;2024-01-27T02:47:03;12.10;1.00
28546;DHT22;15749;49.606;8.738;2024-01-27T02:49:32;12.10;1.00
28546;DHT22;15749;49.606;8.738;2024-01-27T02:52:01;12.10;1.00
28546;DHT22;15749;49.606;8.738;2024-01-27T02:54:30;12.00;1.00
28546;DHT22;15749;49.606;8.738;2024-01-27T02:56:59;12.00;1.00
28546;DHT22;15749;49.606;8.738;2024-01-27T02:59:30;12.10;1.00
28546;DHT22;15749;49.606;8.738;2024-01-27T03:01:59;12.00;1.00
28546;DHT22;15749;49.606;8.738;2024-01-27T03:04:28;12.00;1.00
28546;DHT22;15749;49.606;8.738;2024-01-27T03:06:57;12.00;1.00
28546;DHT22;15749;49.606;8.738;2024-01-27T03:09:26;12.00;1.00
28546;DHT22;15749;49.606;8.738;2024-01-27T03:11:55;11.90;1.00
28546;DHT22;15749;49.606;8.738;2024-01-27T03:14:25;11.90;1.00
28546;DHT22;15749;49.606;8.738;2024-01-27T03:16:55;11.90;1.00
28546;DHT22;15749;49.606;8.738;2024-01-27T03:19:25;11.90;1.00
28546;DHT22;15749;49.606;8.738;2024-01-27T03:21:54;11.90;1.00
28546;DHT22;15749;49.606;8.738;2024-01-27T03:24:23;11.90;1.00
28546;DHT22;15749;49.606;8.738;2024-01-27T03:26:52;11.90;1.00
28546;DHT22;15749;49.606;8.738;2024-01-27T03:29:21;11.80;1.00
28546;DHT22;15749;49.606;8.738;2024-01-27T03:31:50;11.90;1.00
28546;DHT22;15749;49.606;8.738;2024-01-27T03:34:21;11.80;1.00
28546;DHT22;15749;49.606;8.738;2024-01-27T03:36:53;11.80;1.00
28546;DHT22;15749;49.606;8.738;2024-01-27T03:39:22;11.80;1.00
28546;DHT22;15749;49.606;8.738;2024-01-27T03:41:51;11.80;1.00
28546;DHT22;15749;49.606;8.738;2024-01-27T03:44:21;11.80;1.00
28546;DHT22;15749;49.606;8.738;2024-01-27T03:46:50;11.80;1.00
28546;DHT22;15749;49.606;8.738;2024-01-27T03:49:19;11.80;1.00
28546;DHT22;15749;49.606;8.738;2024-01-27T03:51:49;11.70;1.00
28546;DHT22;15749;49.606;8.738;2024-01-27T03:54:18;11.70;1.00
28546;DHT22;15749;49.606;8.738;2024-01-27T03:56:47;11.70;1.00
28546;DHT22;15749;49.606;8.738;2024-01-27T03:59:16;11.70;1.00
28546;DHT22;15749;49.606;8.738;2024-01-27T04:01:45;11.70;1.00
28546;DHT22;15749;49.606;8.738;2024-01-27T04:04:14;11.70;1.00
28546;DHT22;15749;49.606;8.738;2024-01-27T04:06:44;11.60;1.00
28546;DHT22;15749;49.606;8.738;2024-01-27T04:09:14;11.60;1.00
28546;DHT22;15749;49.606;8.738;2024-01-27T04:11:43;11.60;1.00
28546;DHT22;15749;49.606;8.738;2024-01-27T04:14:12;11.60;1.00
28546;DHT22;15749;49.606;8.738;2024-01-27T04:16:42;11.60;1.00
28546;DHT22;15749;49.606;8.738;2024-01-27T04:19:11;11.60;1.00
28546;DHT22;15749;49.606;8.738;2024-01-27T04:21:40;11.60;1.00
28546;DHT22;15749;49.606;8.738;2024-01-27T04:24:10;11.60;1.00
28546;DHT22;15749;49.606;8.738;2024-01-27T04:26:41;11.50;1.00
28546;DHT22;15749;49.606;8.738;2024-01-27T04:29:10;11.50;1.00
28546;DHT22;15749;49.606;8.738;2024-01-27T04:31:43;11.50;1.00
28546;DHT22;15749;49.606;8.738;2024-01-27T04:34:12;11.50;1.00
28546;DHT22;15749;49.606;8.738;2024-01-27T04:36:41;11.50;1.00
28546;DHT22;15749;49.606;8.738;2024-01-27T04:39:10;11.50;1.00
28546;DHT22;15749;49.606;8.738;2024-01-27T04:41:43;11.50;1.00
28546;DHT22;15749;49.606;8.738;2024-01-27T04:44:12;11.50;1.00
28546;DHT22;15749;49.606;8.738;2024-01-27T04:46:41;11.40;1.00
28546;DHT22;15749;49.606;8.738;2024-01-27T04:49:10;11.40;1.00
28546;DHT22;15749;49.606;8.738;2024-01-27T04:51:39;11.40;1.00
28546;DHT22;15749;49.606;8.738;2024-01-27T04:54:09;11.40;1.00
28546;DHT22;15749;49.606;8.738;2024-01-27T04:56:38;11.40;1.00
28546;DHT22;15749;49.606;8.738;2024-01-27T04:59:09;11.40;1.00
28546;DHT22;15749;49.606;8.738;2024-01-27T05:01:38;11.40;1.00
28546;DHT22;15749;49.606;8.738;2024-01-27T05:04:07;11.40;1.00
28546;DHT22;15749;49.606;8.738;2024-01-27T05:06:36;11.40;1.00
28546;DHT22;15749;49.606;8.738;2024-01-27T05:09:06;11.30;1.00
28546;DHT22;15749;49.606;8.738;2024-01-27T05:11:36;11.30;1.00
28546;DHT22;15749;49.606;8.738;2024-01-27T05:14:05;11.30;1.00
28546;DHT22;15749;49.606;8.738;2024-01-27T05:16:35;11.30;1.00
28546;DHT22;15749;49.606;8.738;2024-01-27T05:19:04;11.30;1.00
28546;DHT22;15749;49.606;8.738;2024-01-27T05:21:34;11.30;1.00
28546;DHT22;15749;49.606;8.738;2024-01-27T05:24:04;11.30;1.00
28546;DHT22;15749;49.606;8.738;2024-01-27T05:26:33;11.30;1.00
28546;DHT22;15749;49.606;8.738;2024-01-27T05:29:02;11.20;1.00
28546;DHT22;15749;49.606;8.738;2024-01-27T05:31:31;11.20;1.00
28546;DHT22;15749;49.606;8.738;2024-01-27T05:34:02;11.20;1.00
28546;DHT22;15749;49.606;8.738;2024-01-27T05:36:32;11.20;1.00
28546;DHT22;15749;49.606;8.738;2024-01-27T05:39:02;11.20;1.00
28546;DHT22;15749;49.606;8.738;2024-01-27T05:41:32;11.20;1.00
28546;DHT22;15749;49.606;8.738;2024-01-27T05:44:02;11.20;1.00
28546;DHT22;15749;49.606;8.738;2024-01-27T05:46:30;11.20;1.00
28546;DHT22;15749;49.606;8.738;2024-01-27T05:48:59;11.20;1.00
28546;DHT22;15749;49.606;8.738;2024-01-27T05:51:33;11.20;1.00
28546;DHT22;15749;49.606;8.738;2024-01-27T05:54:02;11.10;1.00
28546;DHT22;15749;49.606;8.738;2024-01-27T05:56:37;11.10;1.00
28546;DHT22;15749;49.606;8.738;2024-01-27T05:59:06;11.10;1.00
28546;DHT22;15749;49.606;8.738;2024-01-27T06:01:35;11.10;1.00
28546;DHT22;15749;49.606;8.738;2024-01-27T06:04:05;11.10;1.00
28546;DHT22;15749;49.606;8.738;2024-01-27T06:06:38;11.10;1.00
28546;DHT22;15749;49.606;8.738;2024-01-27T06:09:07;11.10;1.00
28546;DHT22;15749;49.606;8.738;2024-01-27T06:11:39;11.10;1.00
28546;DHT22;15749;49.606;8.738;2024-01-27T06:14:08;11.00;1.00
28546;DHT22;15749;49.606;8.738;2024-01-27T06:16:37;11.10;1.00
28546;DHT22;15749;49.606;8.738;2024-01-27T06:19:08;11.00;1.00
28546;DHT22;15749;49.606;8.738;2024-01-27T06:21:39;11.00;1.00
28546;DHT22;15749;49.606;8.738;2024-01-27T06:24:09;11.00;1.00
28546;DHT22;15749;49.606;8.738;2024-01-27T06:26:38;11.00;1.00
28546;DHT22;15749;49.606;8.738;2024-01-27T06:29:07;11.00;1.00
28546;DHT22;15749;49.606;8.738;2024-01-27T06:31:36;11.00;1.00
28546;DHT22;15749;49.606;8.738;2024-01-27T06:34:05;11.00;1.00
28546;DHT22;15749;49.606;8.738;2024-01-27T06:36:34;11.00;1.00
28546;DHT22;15749;49.606;8.738;2024-01-27T06:39:05;10.90;1.00
28546;DHT22;15749;49.606;8.738;2024-01-27T06:41:35;10.90;1.00
28546;DHT22;15749;49.606;8.738;2024-01-27T06:44:04;10.90;1.00
28546;DHT22;15749;49.606;8.738;2024-01-27T06:46:33;10.90;1.00
28546;DHT22;15749;49.606;8.738;2024-01-27T06:49:02;10.90;1.00
28546;DHT22;15749;49.606;8.738;2024-01-27T06:51:31;10.90;1.00
28546;DHT22;15749;49.606;8.738;2024-01-27T06:54:01;10.90;1.00
28546;DHT22;15749;49.606;8.738;2024-01-27T06:56:31;10.80;1.00
28546;DHT22;15749;49.606;8.738;2024-01-27T06:59:00;10.80;1.00
28546;DHT22;15749;49.606;8.738;2024-01-27T07:01:29;10.80;1.00
28546;DHT22;15749;49.606;8.738;2024-01-27T07:03:59;10.80;1.00
28546;DHT22;15749;49.606;8.738;2024-01-27T07:06:28;10.80;1.00
28546;DHT22;15749;49.606;8.738;2024-01-27T07:08:58;10.80;1.00
28546;DHT22;15749;49.606;8.738;2024-01-27T07:11:27;10.80;1.00
28546;DHT22;15749;49.606;8.738;2024-01-27T07:13:57;10.80;1.00
28546;DHT22;15749;49.606;8.738;2024-01-27T07:16:27;10.80;1.00
28546;DHT22;15749;49.606;8.738;2024-01-27T07:18:56;10.80;1.00
28546;DHT22;15749;49.606;8.738;2024-01-27T07:21:25;10.70;1.00
28546;DHT22;15749;49.606;8.738;2024-01-27T07:23:56;10.70;1.00
28546;DHT22;15749;49.606;8.738;2024-01-27T07:26:25;10.70;1.00
28546;DHT22;15749;49.606;8.738;2024-01-27T07:28:56;10.70;1.00
28546;DHT22;15749;49.606;8.738;2024-01-27T07:31:28;10.70;1.00
28546;DHT22;15749;49.606;8.738;2024-01-27T07:33:57;10.70;1.00
28546;DHT22;15749;49.606;8.738;2024-01-27T07:36:26;10.70;1.00
28546;DHT22;15749;49.606;8.738;2024-01-27T07:39:00;10.70;1.00
28546;DHT22;15749;49.606;8.738;2024-01-27T07:41:29;10.70;1.00
28546;DHT22;15749;49.606;8.738;2024-01-27T07:44:08;10.70;1.00
28546;DHT22;15749;49.606;8.738;2024-01-27T07:46:38;10.60;1.00
28546;DHT22;15749;49.606;8.738;2024-01-27T07:49:08;10.60;1.00
28546;DHT22;15749;49.606;8.738;2024-01-27T07:51:37;10.60;1.00
28546;DHT22;15749;49.606;8.738;2024-01-27T07:54:06;10.60;1.00
28546;DHT22;15749;49.606;8.738;2024-01-27T07:56:35;10.60;1.00
28546;DHT22;15749;49.606;8.738;2024-01-27T07:59:04;10.60;1.00
28546;DHT22;15749;49.606;8.738;2024-01-27T08:01:37;10.60;1.00
28546;DHT22;15749;49.606;8.738;2024-01-27T08:04:09;10.60;1.00
28546;DHT22;15749;49.606;8.738;2024-01-27T08:06:46;10.50;1.00
28546;DHT22;15749;49.606;8.738;2024-01-27T08:09:16;10.50;1.00
28546;DHT22;15749;49.606;8.738;2024-01-27T08:11:48;10.50;1.00
28546;DHT22;15749;49.606;8.738;2024-01-27T08:14:20;10.50;1.00
28546;DHT22;15749;49.606;8.738;2024-01-27T08:16:51;10.50;1.00
28546;DHT22;15749;49.606;8.738;2024-01-27T08:19:25;10.50;1.00
28546;DHT22;15749;49.606;8.738;2024-01-27T08:21:54;10.50;1.00
28546;DHT22;15749;49.606;8.738;2024-01-27T08:24:23;10.40;1.00
28546;DHT22;15749;49.606;8.738;2024-01-27T08:26:53;10.40;1.00
28546;DHT22;15749;49.606;8.738;2024-01-27T08:29:22;10.40;1.00
28546;DHT22;15749;49.606;8.738;2024-01-27T08:31:52;10.40;1.00
28546;DHT22;15749;49.606;8.738;2024-01-27T08:34:21;10.50;1.00
28546;DHT22;15749;49.606;8.738;2024-01-27T08:36:52;10.50;1.00
28546;DHT22;15749;49.606;8.738;2024-01-27T08:39:21;10.50;1.00
28546;DHT22;15749;49.606;8.738;2024-01-27T08:41:51;10.50;1.00
28546;DHT22;15749;49.606;8.738;2024-01-27T08:44:20;10.50;1.00
28546;DHT22;15749;49.606;8.738;2024-01-27T08:46:49;10.50;1.00
28546;DHT22;15749;49.606;8.738;2024-01-27T08:49:19;10.50;1.00
28546;DHT22;15749;49.606;8.738;2024-01-27T08:51:49;10.50;1.00
28546;DHT22;15749;49.606;8.738;2024-01-27T08:54:18;10.60;1.00
28546;DHT22;15749;49.606;8.738;2024-01-27T08:56:48;10.60;1.00
28546;DHT22;15749;49.606;8.738;2024-01-27T08:59:17;10.60;1.00
28546;DHT22;15749;49.606;8.738;2024-01-27T09:01:46;10.70;1.00
28546;DHT22;15749;49.606;8.738;2024-01-27T09:04:16;10.70;1.00
28546;DHT22;15749;49.606;8.738;2024-01-27T09:06:46;10.70;1.00
28546;DHT22;15749;49.606;8.738;2024-01-27T09:09:16;10.80;1.00
28546;DHT22;15749;49.606;8.738;2024-01-27T09:11:45;10.80;1.00
28546;DHT22;15749;49.606;8.738;2024-01-27T09:14:14;10.90;1.00
28546;DHT22;15749;49.606;8.738;2024-01-27T09:16:43;10.90;1.00
28546;DHT22;15749;49.606;8.738;2024-01-27T09:19:14;10.90;1.00
28546;DHT22;15749;49.606;8.738;2024-01-27T09:21:43;10.90;1.00
28546;DHT22;15749;49.606;8.738;2024-01-27T09:24:14;11.00;1.00
28546;DHT22;15749;49.606;8.738;2024-01-27T09:26:43;11.00;1.00
28546;DHT22;15749;49.606;8.738;2024-01-27T09:29:13;11.00;1.00
28546;DHT22;15749;49.606;8.738;2024-01-27T09:31:42;11.10;1.00
28546;DHT22;15749;49.606;8.738;2024-01-27T09:34:11;11.10;1.00
28546;DHT22;15749;49.606;8.738;2024-01-27T09:36:41;11.20;1.00
28546;DHT22;15749;49.606;8.738;2024-01-27T09:39:10;11.20;1.00
28546;DHT22;15749;49.606;8.738;2024-01-27T09:41:40;11.20;1.00
28546;DHT22;15749;49.606;8.738;2024-01-27T09:44:12;11.30;1.00
28546;DHT22;15749;49.606;8.738;2024-01-27T09:46:42;11.30;1.00
28546;DHT22;15749;49.606;8.738;2024-01-27T09:49:13;11.40;1.00
28546;DHT22;15749;49.606;8.738;2024-01-27T09:51:43;11.40;1.00
28546;DHT22;15749;49.606;8.738;2024-01-27T09:54:12;11.40;1.00
28546;DHT22;15749;49.606;8.738;2024-01-27T09:56:47;11.50;1.00
28546;DHT22;15749;49.606;8.738;2024-01-27T09:59:16;11.50;1.00
28546;DHT22;15749;49.606;8.738;2024-01-27T10:01:48;11.50;1.00
28546;DHT22;15749;49.606;8.738;2024-01-27T10:04:19;11.60;1.00
28546;DHT22;15749;49.606;8.738;2024-01-27T10:06:49;11.60;1.00
28546;DHT22;15749;49.606;8.738;2024-01-27T10:09:19;11.70;1.00
28546;DHT22;15749;49.606;8.738;2024-01-27T10:11:49;11.70;1.00
28546;DHT22;15749;49.606;8.738;2024-01-27T10:14:18;11.80;1.00
28546;DHT22;15749;49.606;8.738;2024-01-27T10:16:48;11.80;1.00
28546;DHT22;15749;49.606;8.738;2024-01-27T10:19:18;11.90;1.00
28546;DHT22;15749;49.606;8.738;2024-01-27T10:21:59;12.00;1.00
28546;DHT22;15749;49.606;8.738;2024-01-27T10:24:28;12.00;1.00
28546;DHT22;15749;49.606;8.738;2024-01-27T10:27:00;12.10;1.00
28546;DHT22;15749;49.606;8.738;2024-01-27T10:29:30;12.10;1.00
28546;DHT22;15749;49.606;8.738;2024-01-27T10:32:07;12.20;1.00
28546;DHT22;15749;49.606;8.738;2024-01-27T10:34:37;12.20;1.00
28546;DHT22;15749;49.606;8.738;2024-01-27T10:37:06;12.30;1.00
28546;DHT22;15749;49.606;8.738;2024-01-27T10:39:35;12.40;1.00
28546;DHT22;15749;49.606;8.738;2024-01-27T10:42:07;12.40;1.00
28546;DHT22;15749;49.606;8.738;2024-01-27T10:44:38;12.50;1.00
28546;DHT22;15749;49.606;8.738;2024-01-27T10:47:11;12.60;1.00
28546;DHT22;15749;49.606;8.738;2024-01-27T10:49:48;12.70;1.00
28546;DHT22;15749;49.606;8.738;2024-01-27T10:52:18;12.80;1.00
28546;DHT22;15749;49.606;8.738;2024-01-27T10:54:51;12.90;1.00
28546;DHT22;15749;49.606;8.738;2024-01-27T10:57:24;12.90;1.00
28546;DHT22;15749;49.606;8.738;2024-01-27T10:59:56;13.00;1.00
28546;DHT22;15749;49.606;8.738;2024-01-27T11:02:25;13.10;1.00
28546;DHT22;15749;49.606;8.738;2024-01-27T11:04:57;13.20;1.00
28546;DHT22;15749;49.606;8.738;2024-01-27T11:07:28;13.30;1.00
28546;DHT22;15749;49.606;8.738;2024-01-27T11:10:01;13.30;1.00
28546;DHT22;15749;49.606;8.738;2024-01-27T11:12:32;13.40;1.00
28546;DHT22;15749;49.606;8.738;2024-01-27T11:15:04;13.50;1.00
28546;DHT22;15749;49.606;8.738;2024-01-27T11:17:39;13.60;1.00
28546;DHT22;15749;49.606;8.738;2024-01-27T11:20:10;13.60;1.00
28546;DHT22;15749;49.606;8.738;2024-01-27T11:22:44;13.70;1.00
28546;DHT22;15749;49.606;8.738;2024-01-27T11:25:26;13.80;1.00
28546;DHT22;15749;49.606;8.738;2024-01-27T11:27:56;13.80;1.00
28546;DHT22;15749;49.606;8.738;2024-01-27T11:30:26;13.90;1.00
28546;DHT22;15749;49.606;8.738;2024-01-27T11:32:57;14.00;1.00
28546;DHT22;15749;49.606;8.738;2024-01-27T11:35:26;14.00;1.00
28546;DHT22;15749;49.606;8.738;2024-01-27T11:37:56;14.10;1.00
28546;DHT22;15749;49.606;8.738;2024-01-27T11:40:25;14.20;1.00
28546;DHT22;15749;49.606;8.738;2024-01-27T11:42:56;14.20;1.00
28546;DHT22;15749;49.606;8.738;2024-01-27T11:45:25;14.30;1.00
28546;DHT22;15749;49.606;8.738;2024-01-27T11:47:56;14.40;1.00
28546;DHT22;15749;49.606;8.738;2024-01-27T11:50:25;14.40;1.00
28546;DHT22;15749;49.606;8.738;2024-01-27T11:52:56;14.50;1.00
28546;DHT22;15749;49.606;8.738;2024-01-27T11:55:25;14.50;1.00
28546;DHT22;15749;49.606;8.738;2024-01-27T11:57:58;14.60;1.00
28546;DHT22;15749;49.606;8.738;2024-01-27T12:00:27;14.60;1.00
28546;DHT22;15749;49.606;8.738;2024-01-27T12:02:57;14.70;1.00
28546;DHT22;15749;49.606;8.738;2024-01-27T12:05:26;14.70;1.00
28546;DHT22;15749;49.606;8.738;2024-01-27T12:07:55;14.70;1.00
28546;DHT22;15749;49.606;8.738;2024-01-27T12:10:24;14.80;1.00
28546;DHT22;15749;49.606;8.738;2024-01-27T12:12:53;14.80;1.00
28546;DHT22;15749;49.606;8.738;2024-01-27T12:15:24;14.80;1.00
28546;DHT22;15749;49.606;8.738;2024-01-27T12:17:54;14.90;1.00
28546;DHT22;15749;49.606;8.738;2024-01-27T12:20:23;14.90;1.00
28546;DHT22;15749;49.606;8.738;2024-01-27T12:23:02;15.00;1.00
28546;DHT22;15749;49.606;8.738;2024-01-27T12:25:31;15.00;1.00
28546;DHT22;15749;49.606;8.738;2024-01-27T12:28:02;15.00;1.00
28546;DHT22;15749;49.606;8.738;2024-01-27T12:30:33;15.00;1.00
28546;DHT22;15749;49.606;8.738;2024-01-27T12:33:09;15.00;1.00
28546;DHT22;15749;49.606;8.738;2024-01-27T12:35:41;15.00;1.00
28546;DHT22;15749;49.606;8.738;2024-01-27T12:38:10;15.00;1.00
28546;DHT22;15749;49.606;8.738;2024-01-27T12:40:39;15.10;1.00
28546;DHT22;15749;49.606;8.738;2024-01-27T12:43:11;15.10;1.00
28546;DHT22;15749;49.606;8.738;2024-01-27T12:45:41;15.10;1.00
28546;DHT22;15749;49.606;8.738;2024-01-27T12:48:10;15.10;1.00
28546;DHT22;15749;49.606;8.738;2024-01-27T12:50:40;15.10;1.00
28546;DHT22;15749;49.606;8.738;2024-01-27T12:53:09;15.20;1.00
28546;DHT22;15749;49.606;8.738;2024-01-27T12:55:38;15.20;1.00
28546;DHT22;15749;49.606;8.738;2024-01-27T12:58:07;15.20;1.00
28546;DHT22;15749;49.606;8.738;2024-01-27T13:00:36;15.20;1.00
28546;DHT22;15749;49.606;8.738;2024-01-27T13:03:07;15.30;1.00
28546;DHT22;15749;49.606;8.738;2024-01-27T13:05:36;15.30;1.00
28546;DHT22;15749;49.606;8.738;2024-01-27T13:08:06;15.30;1.00
28546;DHT22;15749;49.606;8.738;2024-01-27T13:10:36;15.40;1.00
28546;DHT22;15749;49.606;8.738;2024-01-27T13:13:05;15.40;1.00
28546;DHT22;15749;49.606;8.738;2024-01-27T13:15:34;15.40;1.00
28546;DHT22;15749;49.606;8.738;2024-01-27T13:18:04;15.40;1.00
28546;DHT22;15749;49.606;8.738;2024-01-27T13:20:35;15.40;1.00
28546;DHT22;15749;49.606;8.738;2024-01-27T13:23:04;15.40;1.00
28546;DHT22;15749;49.606;8.738;2024-01-27T13:25:35;15.40;1.00
28546;DHT22;15749;49.606;8.738;2024-01-27T13:28:05;15.40;1.00
28546;DHT22;15749;49.606;8.738;2024-01-27T13:30:39;15.40;1.00
28546;DHT22;15749;49.606;8.738;2024-01-27T13:33:09;15.40;1.00
28546;DHT22;15749;49.606;8.738;2024-01-27T13:35:40;15.30;1.00
28546;DHT22;15749;49.606;8.738;2024-01-27T13:38:11;15.40;1.00
28546;DHT22;15749;49.606;8.738;2024-01-27T13:40:40;15.40;1.00
28546;DHT22;15749;49.606;8.738;2024-01-27T13:43:10;15.30;1.00
28546;DHT22;15749;49.606;8.738;2024-01-27T13:45:39;15.30;1.00
28546;DHT22;15749;49.606;8.738;2024-01-27T13:48:09;15.30;1.00
28546;DHT22;15749;49.606;8.738;2024-01-27T13:50:45;15.30;1.00
28546;DHT22;15749;49.606;8.738;2024-01-27T13:53:14;15.30;1.00
28546;DHT22;15749;49.606;8.738;2024-01-27T13:55:43;15.30;1.00
28546;DHT22;15749;49.606;8.738;2024-01-27T13:58:12;15.30;1.00
28546;DHT22;15749;49.606;8.738;2024-01-27T14:00:41;15.30;1.00
28546;DHT22;15749;49.606;8.738;2024-01-27T14:03:11;15.20;1.00
28546;DHT22;15749;49.606;8.738;2024-01-27T14:05:42;15.20;1.00
28546;DHT22;15749;49.606;8.738;2024-01-27T14:08:12;15.20;1.00
28546;DHT22;15749;49.606;8.738;2024-01-27T14:13:44;15.20;1.00
28546;DHT22;15749;49.606;8.738;2024-01-27T14:16:13;15.20;1.00
28546;DHT22;15749;49.606;8.738;2024-01-27T14:18:42;15.20;1.00
28546;DHT22;15749;49.606;8.738;2024-01-27T14:21:13;15.10;1.00
28546;DHT22;15749;49.606;8.738;2024-01-27T14:23:42;15.10;1.00
28546;DHT22;15749;49.606;8.738;2024-01-27T14:26:11;15.10;1.00
28546;DHT22;15749;49.606;8.738;2024-01-27T14:28:43;15.10;1.00
28546;DHT22;15749;49.606;8.738;2024-01-27T14:31:12;15.10;1.00
28546;DHT22;15749;49.606;8.738;2024-01-27T14:33:42;15.10;1.00
28546;DHT22;15749;49.606;8.738;2024-01-27T14:36:14;15.00;1.00
28546;DHT22;15749;49.606;8.738;2024-01-27T14:38:43;15.00;1.00
28546;DHT22;15749;49.606;8.738;2024-01-27T14:41:12;15.00;1.00
28546;DHT22;15749;49.606;8.738;2024-01-27T14:43:42;15.00;1.00
28546;DHT22;15749;49.606;8.738;2024-01-27T14:46:11;15.00;1.00
28546;DHT22;15749;49.606;8.738;2024-01-27T14:48:41;15.00;1.00
28546;DHT22;15749;49.606;8.738;2024-01-27T14:51:14;15.00;1.00
28546;DHT22;15749;49.606;8.738;2024-01-27T14:53:43;15.00;1.00
28546;DHT22;15749;49.606;8.738;2024-01-27T14:56:13;14.90;1.00
28546;DHT22;15749;49.606;8.738;2024-01-27T14:58:43;14.90;1.00
28546;DHT22;15749;49.606;8.738;2024-01-27T15:01:14;14.90;1.00
28546;DHT22;15749;49.606;8.738;2024-01-27T15:03:44;14.90;1.00
28546;DHT22;15749;49.606;8.738;2024-01-27T15:06:14;14.90;1.00
28546;DHT22;15749;49.606;8.738;2024-01-27T15:08:44;14.80;1.00
28546;DHT22;15749;49.606;8.738;2024-01-27T15:11:13;14.80;1.00
28546;DHT22;15749;49.606;8.738;2024-01-27T15:13:43;14.80;1.00
28546;DHT22;15749;49.606;8.738;2024-01-27T15:16:16;14.80;1.00
28546;DHT22;15749;49.606;8.738;2024-01-27T15:18:46;14.80;1.00
28546;DHT22;15749;49.606;8.738;2024-01-27T15:21:16;14.80;1.00
28546;DHT22;15749;49.606;8.738;2024-01-27T15:23:45;14.70;1.00
28546;DHT22;15749;49.606;8.738;2024-01-27T15:26:14;14.70;1.00
28546;DHT22;15749;49.606;8.738;2024-01-27T15:28:44;14.70;1.00
28546;DHT22;15749;49.606;8.738;2024-01-27T15:31:13;14.70;1.00
28546;DHT22;15749;49.606;8.738;2024-01-27T15:33:42;14.70;1.00
28546;DHT22;15749;49.606;8.738;2024-01-27T15:36:11;14.70;1.00
28546;DHT22;15749;49.606;8.738;2024-01-27T15:38:42;14.60;1.00
28546;DHT22;15749;49.606;8.738;2024-01-27T15:41:11;14.60;1.00
28546;DHT22;15749;49.606;8.738;2024-01-27T15:43:40;14.60;1.00
28546;DHT22;15749;49.606;8.738;2024-01-27T15:46:14;14.60;1.00
28546;DHT22;15749;49.606;8.738;2024-01-27T15:48:44;14.60;1.00
28546;DHT22;15749;49.606;8.738;2024-01-27T15:51:14;14.60;1.00
28546;DHT22;15749;49.606;8.738;2024-01-27T15:53:45;14.50;1.00
28546;DHT22;15749;49.606;8.738;2024-01-27T15:56:14;14.50;1.00
28546;DHT22;15749;49.606;8.738;2024-01-27T15:58:43;14.50;1.00
28546;DHT22;15749;49.606;8.738;2024-01-27T16:01:12;14.50;1.00
28546;DHT22;15749;49.606;8.738;2024-01-27T16:03:42;14.50;1.00
28546;DHT22;15749;49.606;8.738;2024-01-27T16:06:11;14.50;1.00